< < Back
Terminal Aerodrome Forecast


Current Version              Previous Versions:   1  2  3  4  5  6  7  8  9  

Terminal Aerodrome Forecast

491
FTUS42 KJAX 301622 AAC
TAFJAX
TAF AMD
KJAX 301622Z 3016/3112 10006KT P6SM VCSH SCT006 BKN025
      TEMPO 3016/3018 3SM SHRA BR BKN006
     FM301900 10010KT P6SM VCTS SCT020 BKN035CB
     FM310000 12006KT P6SM VCSH SCT015 SCT030 BKN100=

Latest METAR

635
SAUS80 KWBC 302200
MTRJAX
METAR KJAX 302156Z 10006KT 10SM FEW018 BKN025 BKN110 OVC250 26/24 A3001
RMK AO2 RAE30 SLP164 P0001 T02560244


USA.gov is the U.S. government's official web portal to all federal, state and local government web resources and services.